sensor_id;sensor_type;location;lat;lon;timestamp;P1;durP1;ratioP1;P2;durP2;ratioP2
16352;SDS011;8286;51.274;9.542;2022-07-06T00:01:38;5.55;;;1.48;;
16352;SDS011;8286;51.274;9.542;2022-07-06T00:04:05;2.45;;;1.63;;
16352;SDS011;8286;51.274;9.542;2022-07-06T00:06:32;2.55;;;1.33;;
16352;SDS011;8286;51.274;9.542;2022-07-06T00:09:00;2.58;;;1.63;;
16352;SDS011;8286;51.274;9.542;2022-07-06T00:11:28;2.50;;;1.40;;
16352;SDS011;8286;51.274;9.542;2022-07-06T00:13:54;4.13;;;1.38;;
16352;SDS011;8286;51.274;9.542;2022-07-06T00:16:22;3.10;;;1.33;;
16352;SDS011;8286;51.274;9.542;2022-07-06T00:18:49;2.03;;;1.80;;
16352;SDS011;8286;51.274;9.542;2022-07-06T00:21:15;2.00;;;1.50;;
16352;SDS011;8286;51.274;9.542;2022-07-06T00:23:42;3.08;;;1.60;;
16352;SDS011;8286;51.274;9.542;2022-07-06T00:26:10;1.42;;;1.38;;
16352;SDS011;8286;51.274;9.542;2022-07-06T00:28:37;2.97;;;1.40;;
16352;SDS011;8286;51.274;9.542;2022-07-06T00:31:03;2.67;;;1.70;;
16352;SDS011;8286;51.274;9.542;2022-07-06T00:33:31;1.60;;;1.43;;
16352;SDS011;8286;51.274;9.542;2022-07-06T00:35:58;2.43;;;1.27;;
16352;SDS011;8286;51.274;9.542;2022-07-06T00:38:24;3.17;;;1.70;;
16352;SDS011;8286;51.274;9.542;2022-07-06T00:40:51;2.57;;;1.20;;
16352;SDS011;8286;51.274;9.542;2022-07-06T00:43:19;2.17;;;1.50;;
16352;SDS011;8286;51.274;9.542;2022-07-06T00:45:46;1.80;;;1.00;;
16352;SDS011;8286;51.274;9.542;2022-07-06T00:48:12;2.40;;;1.50;;
16352;SDS011;8286;51.274;9.542;2022-07-06T00:50:39;1.47;;;1.23;;
16352;SDS011;8286;51.274;9.542;2022-07-06T00:53:06;2.57;;;1.73;;
16352;SDS011;8286;51.274;9.542;2022-07-06T00:55:34;2.07;;;1.57;;
16352;SDS011;8286;51.274;9.542;2022-07-06T00:58:04;3.17;;;1.57;;
16352;SDS011;8286;51.274;9.542;2022-07-06T01:00:32;7.53;;;1.93;;
16352;SDS011;8286;51.274;9.542;2022-07-06T01:02:59;2.40;;;1.50;;
16352;SDS011;8286;51.274;9.542;2022-07-06T01:05:27;5.03;;;1.37;;
16352;SDS011;8286;51.274;9.542;2022-07-06T01:07:53;2.17;;;1.70;;
16352;SDS011;8286;51.274;9.542;2022-07-06T01:10:21;3.03;;;1.50;;
16352;SDS011;8286;51.274;9.542;2022-07-06T01:12:49;1.87;;;1.60;;
16352;SDS011;8286;51.274;9.542;2022-07-06T01:15:16;1.40;;;1.30;;
16352;SDS011;8286;51.274;9.542;2022-07-06T01:17:46;7.20;;;2.03;;
16352;SDS011;8286;51.274;9.542;2022-07-06T01:20:14;11.63;;;2.20;;
16352;SDS011;8286;51.274;9.542;2022-07-06T01:22:41;2.57;;;1.60;;
16352;SDS011;8286;51.274;9.542;2022-07-06T01:25:09;3.60;;;1.43;;
16352;SDS011;8286;51.274;9.542;2022-07-06T01:27:36;1.80;;;1.60;;
16352;SDS011;8286;51.274;9.542;2022-07-06T01:30:04;4.50;;;1.70;;
16352;SDS011;8286;51.274;9.542;2022-07-06T01:32:32;3.20;;;1.80;;
16352;SDS011;8286;51.274;9.542;2022-07-06T01:34:59;1.50;;;1.40;;
16352;SDS011;8286;51.274;9.542;2022-07-06T01:37:27;1.60;;;1.50;;
16352;SDS011;8286;51.274;9.542;2022-07-06T01:39:57;2.63;;;1.53;;
16352;SDS011;8286;51.274;9.542;2022-07-06T01:42:24;1.60;;;1.50;;
16352;SDS011;8286;51.274;9.542;2022-07-06T01:44:51;2.90;;;1.70;;
16352;SDS011;8286;51.274;9.542;2022-07-06T01:47:17;5.87;;;1.90;;
16352;SDS011;8286;51.274;9.542;2022-07-06T01:49:44;3.67;;;1.87;;
16352;SDS011;8286;51.274;9.542;2022-07-06T01:52:10;2.07;;;1.87;;
16352;SDS011;8286;51.274;9.542;2022-07-06T01:54:38;3.03;;;1.73;;
16352;SDS011;8286;51.274;9.542;2022-07-06T01:57:05;2.50;;;1.80;;
16352;SDS011;8286;51.274;9.542;2022-07-06T01:59:32;1.67;;;1.57;;
16352;SDS011;8286;51.274;9.542;2022-07-06T02:01:58;5.87;;;1.73;;
16352;SDS011;8286;51.274;9.542;2022-07-06T02:04:25;1.83;;;1.60;;
16352;SDS011;8286;51.274;9.542;2022-07-06T02:06:52;2.57;;;2.20;;
16352;SDS011;8286;51.274;9.542;2022-07-06T02:09:18;3.47;;;1.60;;
16352;SDS011;8286;51.274;9.542;2022-07-06T02:11:46;2.60;;;1.73;;
16352;SDS011;8286;51.274;9.542;2022-07-06T02:14:13;1.83;;;1.70;;
16352;SDS011;8286;51.274;9.542;2022-07-06T02:16:40;3.77;;;1.83;;
16352;SDS011;8286;51.274;9.542;2022-07-06T02:19:06;2.03;;;1.93;;
16352;SDS011;8286;51.274;9.542;2022-07-06T02:21:33;4.10;;;2.30;;
16352;SDS011;8286;51.274;9.542;2022-07-06T02:23:59;2.47;;;1.90;;
16352;SDS011;8286;51.274;9.542;2022-07-06T02:26:26;2.40;;;2.00;;
16352;SDS011;8286;51.274;9.542;2022-07-06T02:28:54;2.37;;;1.70;;
16352;SDS011;8286;51.274;9.542;2022-07-06T02:31:21;4.70;;;1.97;;
16352;SDS011;8286;51.274;9.542;2022-07-06T02:33:47;3.70;;;1.80;;
16352;SDS011;8286;51.274;9.542;2022-07-06T02:36:14;1.77;;;1.67;;
16352;SDS011;8286;51.274;9.542;2022-07-06T02:38:41;3.37;;;1.70;;
16352;SDS011;8286;51.274;9.542;2022-07-06T02:41:07;3.20;;;2.00;;
16352;SDS011;8286;51.274;9.542;2022-07-06T02:43:34;5.97;;;2.07;;
16352;SDS011;8286;51.274;9.542;2022-07-06T02:46:04;2.57;;;2.00;;
16352;SDS011;8286;51.274;9.542;2022-07-06T02:48:31;3.83;;;2.00;;
16352;SDS011;8286;51.274;9.542;2022-07-06T02:50:57;3.30;;;1.97;;
16352;SDS011;8286;51.274;9.542;2022-07-06T02:53:24;2.00;;;1.80;;
16352;SDS011;8286;51.274;9.542;2022-07-06T02:55:51;3.50;;;1.63;;
16352;SDS011;8286;51.274;9.542;2022-07-06T02:58:18;1.83;;;1.70;;
16352;SDS011;8286;51.274;9.542;2022-07-06T03:00:44;2.17;;;1.80;;
16352;SDS011;8286;51.274;9.542;2022-07-06T03:03:12;5.23;;;1.93;;
16352;SDS011;8286;51.274;9.542;2022-07-06T03:05:39;2.40;;;2.20;;
16352;SDS011;8286;51.274;9.542;2022-07-06T03:08:06;4.43;;;2.23;;
16352;SDS011;8286;51.274;9.542;2022-07-06T03:10:32;2.53;;;1.77;;
16352;SDS011;8286;51.274;9.542;2022-07-06T03:12:59;2.27;;;1.90;;
16352;SDS011;8286;51.274;9.542;2022-07-06T03:15:25;5.47;;;1.90;;
16352;SDS011;8286;51.274;9.542;2022-07-06T03:17:52;2.93;;;1.73;;
16352;SDS011;8286;51.274;9.542;2022-07-06T03:20:20;1.97;;;1.87;;
16352;SDS011;8286;51.274;9.542;2022-07-06T03:22:47;4.97;;;1.70;;
16352;SDS011;8286;51.274;9.542;2022-07-06T03:25:15;1.90;;;1.77;;
16352;SDS011;8286;51.274;9.542;2022-07-06T03:27:41;4.20;;;2.03;;
16352;SDS011;8286;51.274;9.542;2022-07-06T03:30:08;2.40;;;2.20;;
16352;SDS011;8286;51.274;9.542;2022-07-06T03:32:35;2.07;;;1.93;;
16352;SDS011;8286;51.274;9.542;2022-07-06T03:35:02;2.63;;;1.70;;
16352;SDS011;8286;51.274;9.542;2022-07-06T03:37:31;7.77;;;2.07;;
16352;SDS011;8286;51.274;9.542;2022-07-06T03:39:57;3.27;;;2.00;;
16352;SDS011;8286;51.274;9.542;2022-07-06T03:42:24;1.93;;;1.83;;
16352;SDS011;8286;51.274;9.542;2022-07-06T03:44:50;3.63;;;2.07;;
16352;SDS011;8286;51.274;9.542;2022-07-06T03:47:17;2.67;;;2.00;;
16352;SDS011;8286;51.274;9.542;2022-07-06T03:49:44;2.00;;;1.90;;
16352;SDS011;8286;51.274;9.542;2022-07-06T03:52:10;2.87;;;1.53;;
16352;SDS011;8286;51.274;9.542;2022-07-06T03:54:38;6.87;;;1.70;;
16352;SDS011;8286;51.274;9.542;2022-07-06T03:57:05;4.43;;;2.30;;
16352;SDS011;8286;51.274;9.542;2022-07-06T03:59:31;2.10;;;1.90;;
16352;SDS011;8286;51.274;9.542;2022-07-06T04:01:58;4.67;;;1.77;;
16352;SDS011;8286;51.274;9.542;2022-07-06T04:04:25;3.30;;;1.67;;
16352;SDS011;8286;51.274;9.542;2022-07-06T04:06:51;4.73;;;2.40;;
16352;SDS011;8286;51.274;9.542;2022-07-06T04:09:18;2.53;;;1.80;;
16352;SDS011;8286;51.274;9.542;2022-07-06T04:11:46;2.80;;;1.70;;
16352;SDS011;8286;51.274;9.542;2022-07-06T04:14:13;3.00;;;1.90;;
16352;SDS011;8286;51.274;9.542;2022-07-06T04:16:39;1.63;;;1.40;;
16352;SDS011;8286;51.274;9.542;2022-07-06T04:19:06;4.27;;;1.80;;
16352;SDS011;8286;51.274;9.542;2022-07-06T04:21:33;2.63;;;1.67;;
16352;SDS011;8286;51.274;9.542;2022-07-06T04:23:59;5.57;;;1.80;;
16352;SDS011;8286;51.274;9.542;2022-07-06T04:26:26;4.40;;;1.73;;
16352;SDS011;8286;51.274;9.542;2022-07-06T04:28:54;2.20;;;1.80;;
16352;SDS011;8286;51.274;9.542;2022-07-06T04:31:21;6.43;;;2.13;;
16352;SDS011;8286;51.274;9.542;2022-07-06T04:33:48;3.87;;;2.07;;
16352;SDS011;8286;51.274;9.542;2022-07-06T04:36:14;3.03;;;2.10;;
16352;SDS011;8286;51.274;9.542;2022-07-06T04:38:41;2.40;;;2.20;;
16352;SDS011;8286;51.274;9.542;2022-07-06T04:41:08;5.97;;;1.87;;
16352;SDS011;8286;51.274;9.542;2022-07-06T04:43:34;1.83;;;1.70;;
16352;SDS011;8286;51.274;9.542;2022-07-06T04:46:02;2.77;;;1.60;;
16352;SDS011;8286;51.274;9.542;2022-07-06T04:48:30;2.73;;;1.80;;
16352;SDS011;8286;51.274;9.542;2022-07-06T04:51:01;6.00;;;3.77;;
16352;SDS011;8286;51.274;9.542;2022-07-06T04:53:28;7.70;;;5.17;;
16352;SDS011;8286;51.274;9.542;2022-07-06T04:55:54;4.30;;;2.50;;
16352;SDS011;8286;51.274;9.542;2022-07-06T04:58:21;2.47;;;1.60;;
16352;SDS011;8286;51.274;9.542;2022-07-06T05:00:48;2.63;;;2.00;;
16352;SDS011;8286;51.274;9.542;2022-07-06T05:03:16;3.77;;;1.57;;
16352;SDS011;8286;51.274;9.542;2022-07-06T05:05:42;1.83;;;1.70;;
16352;SDS011;8286;51.274;9.542;2022-07-06T05:08:09;2.70;;;2.00;;
16352;SDS011;8286;51.274;9.542;2022-07-06T05:10:35;3.43;;;1.83;;
16352;SDS011;8286;51.274;9.542;2022-07-06T05:13:02;2.53;;;1.60;;
16352;SDS011;8286;51.274;9.542;2022-07-06T05:15:29;6.03;;;2.10;;
16352;SDS011;8286;51.274;9.542;2022-07-06T05:17:55;4.20;;;1.50;;
16352;SDS011;8286;51.274;9.542;2022-07-06T05:20:23;1.70;;;1.57;;
16352;SDS011;8286;51.274;9.542;2022-07-06T05:22:50;2.27;;;1.50;;
16352;SDS011;8286;51.274;9.542;2022-07-06T05:25:17;2.37;;;1.70;;
16352;SDS011;8286;51.274;9.542;2022-07-06T05:27:43;2.30;;;2.03;;
16352;SDS011;8286;51.274;9.542;2022-07-06T05:30:10;3.63;;;1.80;;
16352;SDS011;8286;51.274;9.542;2022-07-06T05:32:37;3.60;;;1.70;;
16352;SDS011;8286;51.274;9.542;2022-07-06T05:35:04;1.58;;;1.50;;
16352;SDS011;8286;51.274;9.542;2022-07-06T05:37:33;2.55;;;1.80;;
16352;SDS011;8286;51.274;9.542;2022-07-06T05:40:00;5.50;;;1.65;;
16352;SDS011;8286;51.274;9.542;2022-07-06T05:42:26;1.55;;;1.45;;
16352;SDS011;8286;51.274;9.542;2022-07-06T05:44:54;1.90;;;1.80;;
16352;SDS011;8286;51.274;9.542;2022-07-06T05:47:21;1.67;;;1.45;;
16352;SDS011;8286;51.274;9.542;2022-07-06T05:50:05;1.77;;;1.60;;
16352;SDS011;8286;51.274;9.542;2022-07-06T05:52:40;2.53;;;1.60;;
16352;SDS011;8286;51.274;9.542;2022-07-06T05:55:08;4.00;;;1.50;;
16352;SDS011;8286;51.274;9.542;2022-07-06T05:57:35;2.45;;;1.55;;
16352;SDS011;8286;51.274;9.542;2022-07-06T06:00:02;2.88;;;1.77;;
16352;SDS011;8286;51.274;9.542;2022-07-06T06:02:35;3.67;;;1.63;;
16352;SDS011;8286;51.274;9.542;2022-07-06T06:05:03;3.53;;;1.75;;
16352;SDS011;8286;51.274;9.542;2022-07-06T06:07:32;1.95;;;1.55;;
16352;SDS011;8286;51.274;9.542;2022-07-06T06:10:01;4.75;;;2.00;;
16352;SDS011;8286;51.274;9.542;2022-07-06T06:12:28;2.03;;;1.90;;
16352;SDS011;8286;51.274;9.542;2022-07-06T06:14:55;1.75;;;1.48;;
16352;SDS011;8286;51.274;9.542;2022-07-06T06:17:21;6.88;;;1.50;;
16352;SDS011;8286;51.274;9.542;2022-07-06T06:19:48;4.07;;;1.60;;
16352;SDS011;8286;51.274;9.542;2022-07-06T06:22:15;4.90;;;1.77;;
16352;SDS011;8286;51.274;9.542;2022-07-06T06:24:41;3.35;;;1.85;;
16352;SDS011;8286;51.274;9.542;2022-07-06T06:27:09;2.95;;;1.60;;
16352;SDS011;8286;51.274;9.542;2022-07-06T06:29:36;1.95;;;1.83;;
16352;SDS011;8286;51.274;9.542;2022-07-06T06:32:03;2.05;;;1.38;;
16352;SDS011;8286;51.274;9.542;2022-07-06T06:34:30;2.13;;;1.90;;
16352;SDS011;8286;51.274;9.542;2022-07-06T06:36:57;2.70;;;1.95;;
16352;SDS011;8286;51.274;9.542;2022-07-06T06:39:24;2.47;;;1.65;;
16352;SDS011;8286;51.274;9.542;2022-07-06T06:41:51;2.80;;;2.10;;
16352;SDS011;8286;51.274;9.542;2022-07-06T06:44:19;4.47;;;2.03;;
16352;SDS011;8286;51.274;9.542;2022-07-06T06:46:48;2.85;;;1.65;;
16352;SDS011;8286;51.274;9.542;2022-07-06T06:49:15;1.92;;;1.60;;
16352;SDS011;8286;51.274;9.542;2022-07-06T06:51:41;2.95;;;1.48;;
16352;SDS011;8286;51.274;9.542;2022-07-06T06:54:08;1.42;;;1.30;;
16352;SDS011;8286;51.274;9.542;2022-07-06T06:56:35;2.88;;;1.67;;
16352;SDS011;8286;51.274;9.542;2022-07-06T06:59:01;3.05;;;1.00;;
16352;SDS011;8286;51.274;9.542;2022-07-06T07:01:29;3.45;;;1.25;;
16352;SDS011;8286;51.274;9.542;2022-07-06T07:03:57;2.22;;;1.20;;
16352;SDS011;8286;51.274;9.542;2022-07-06T07:06:24;2.42;;;0.93;;
16352;SDS011;8286;51.274;9.542;2022-07-06T07:08:51;1.70;;;0.90;;
16352;SDS011;8286;51.274;9.542;2022-07-06T07:11:17;0.98;;;0.95;;
16352;SDS011;8286;51.274;9.542;2022-07-06T07:13:44;1.45;;;1.08;;
16352;SDS011;8286;51.274;9.542;2022-07-06T07:16:11;2.53;;;0.90;;
16352;SDS011;8286;51.274;9.542;2022-07-06T07:18:39;1.45;;;0.93;;
16352;SDS011;8286;51.274;9.542;2022-07-06T07:21:05;3.70;;;1.15;;
16352;SDS011;8286;51.274;9.542;2022-07-06T07:23:32;1.60;;;1.10;;
16352;SDS011;8286;51.274;9.542;2022-07-06T07:25:59;2.15;;;0.98;;
16352;SDS011;8286;51.274;9.542;2022-07-06T07:28:25;3.58;;;1.13;;
16352;SDS011;8286;51.274;9.542;2022-07-06T07:30:52;1.38;;;1.02;;
16352;SDS011;8286;51.274;9.542;2022-07-06T07:33:19;3.03;;;1.17;;
16352;SDS011;8286;51.274;9.542;2022-07-06T07:35:47;1.52;;;1.20;;
16352;SDS011;8286;51.274;9.542;2022-07-06T07:38:13;5.22;;;1.20;;
16352;SDS011;8286;51.274;9.542;2022-07-06T07:40:40;1.70;;;0.98;;
16352;SDS011;8286;51.274;9.542;2022-07-06T07:43:06;1.67;;;1.10;;
16352;SDS011;8286;51.274;9.542;2022-07-06T07:45:33;3.72;;;1.17;;
16352;SDS011;8286;51.274;9.542;2022-07-06T07:48:00;1.25;;;1.25;;
16352;SDS011;8286;51.274;9.542;2022-07-06T07:50:27;2.35;;;1.00;;
16352;SDS011;8286;51.274;9.542;2022-07-06T07:52:55;1.60;;;1.45;;
16352;SDS011;8286;51.274;9.542;2022-07-06T07:55:22;2.83;;;1.15;;
16352;SDS011;8286;51.274;9.542;2022-07-06T07:57:49;3.60;;;1.20;;
16352;SDS011;8286;51.274;9.542;2022-07-06T08:00:16;1.25;;;0.80;;
16352;SDS011;8286;51.274;9.542;2022-07-06T08:02:42;1.00;;;1.00;;
16352;SDS011;8286;51.274;9.542;2022-07-06T08:05:09;4.28;;;0.90;;
16352;SDS011;8286;51.274;9.542;2022-07-06T08:07:38;1.20;;;1.02;;
16352;SDS011;8286;51.274;9.542;2022-07-06T08:10:07;1.08;;;1.00;;
16352;SDS011;8286;51.274;9.542;2022-07-06T08:12:34;3.05;;;1.00;;
16352;SDS011;8286;51.274;9.542;2022-07-06T08:15:01;1.05;;;0.95;;
16352;SDS011;8286;51.274;9.542;2022-07-06T08:17:28;4.22;;;0.93;;
16352;SDS011;8286;51.274;9.542;2022-07-06T08:19:55;0.90;;;0.90;;
16352;SDS011;8286;51.274;9.542;2022-07-06T08:22:22;2.60;;;0.90;;
16352;SDS011;8286;51.274;9.542;2022-07-06T08:24:48;0.60;;;0.60;;
16352;SDS011;8286;51.274;9.542;2022-07-06T08:27:17;0.80;;;0.80;;
16352;SDS011;8286;51.274;9.542;2022-07-06T08:29:43;0.80;;;0.80;;
16352;SDS011;8286;51.274;9.542;2022-07-06T08:32:10;4.70;;;1.20;;
16352;SDS011;8286;51.274;9.542;2022-07-06T08:34:36;0.70;;;0.70;;
16352;SDS011;8286;51.274;9.542;2022-07-06T08:37:03;1.52;;;0.70;;
16352;SDS011;8286;51.274;9.542;2022-07-06T08:39:30;1.13;;;0.80;;
16352;SDS011;8286;51.274;9.542;2022-07-06T08:41:56;4.80;;;1.15;;
16352;SDS011;8286;51.274;9.542;2022-07-06T08:44:26;1.42;;;1.20;;
16352;SDS011;8286;51.274;9.542;2022-07-06T08:46:53;1.33;;;0.90;;
16352;SDS011;8286;51.274;9.542;2022-07-06T08:49:21;2.60;;;1.17;;
16352;SDS011;8286;51.274;9.542;2022-07-06T08:51:48;0.98;;;0.77;;
16352;SDS011;8286;51.274;9.542;2022-07-06T08:54:15;1.75;;;0.65;;
16352;SDS011;8286;51.274;9.542;2022-07-06T08:56:43;1.50;;;0.90;;
16352;SDS011;8286;51.274;9.542;2022-07-06T08:59:10;2.85;;;1.02;;
16352;SDS011;8286;51.274;9.542;2022-07-06T09:01:38;3.83;;;0.60;;
16352;SDS011;8286;51.274;9.542;2022-07-06T09:04:05;0.70;;;0.70;;
16352;SDS011;8286;51.274;9.542;2022-07-06T09:06:32;0.95;;;0.70;;
16352;SDS011;8286;51.274;9.542;2022-07-06T09:09:00;2.10;;;0.80;;
16352;SDS011;8286;51.274;9.542;2022-07-06T09:11:29;2.08;;;0.80;;
16352;SDS011;8286;51.274;9.542;2022-07-06T09:13:56;2.22;;;0.80;;
16352;SDS011;8286;51.274;9.542;2022-07-06T09:16:25;0.80;;;0.80;;
16352;SDS011;8286;51.274;9.542;2022-07-06T09:18:56;0.80;;;0.80;;
16352;SDS011;8286;51.274;9.542;2022-07-06T09:21:23;2.10;;;0.88;;
16352;SDS011;8286;51.274;9.542;2022-07-06T09:23:52;0.80;;;0.80;;
16352;SDS011;8286;51.274;9.542;2022-07-06T09:26:20;2.00;;;0.75;;
16352;SDS011;8286;51.274;9.542;2022-07-06T09:28:47;2.53;;;0.70;;
16352;SDS011;8286;51.274;9.542;2022-07-06T09:31:14;3.17;;;0.60;;
16352;SDS011;8286;51.274;9.542;2022-07-06T09:33:52;2.75;;;0.73;;
16352;SDS011;8286;51.274;9.542;2022-07-06T09:39:16;2.53;;;0.80;;
16352;SDS011;8286;51.274;9.542;2022-07-06T09:41:47;1.65;;;0.80;;
16352;SDS011;8286;51.274;9.542;2022-07-06T09:44:18;0.75;;;0.68;;
16352;SDS011;8286;51.274;9.542;2022-07-06T09:46:47;8.63;;;1.75;;
16352;SDS011;8286;51.274;9.542;2022-07-06T09:49:17;6.60;;;0.70;;
16352;SDS011;8286;51.274;9.542;2022-07-06T09:51:45;0.68;;;0.57;;
16352;SDS011;8286;51.274;9.542;2022-07-06T09:54:12;1.33;;;0.90;;
16352;SDS011;8286;51.274;9.542;2022-07-06T09:56:39;1.25;;;0.57;;
16352;SDS011;8286;51.274;9.542;2022-07-06T09:59:13;2.42;;;0.68;;
16352;SDS011;8286;51.274;9.542;2022-07-06T10:01:41;2.85;;;0.75;;
16352;SDS011;8286;51.274;9.542;2022-07-06T10:04:09;0.60;;;0.60;;
16352;SDS011;8286;51.274;9.542;2022-07-06T10:06:39;1.85;;;0.98;;
16352;SDS011;8286;51.274;9.542;2022-07-06T10:09:06;2.13;;;0.77;;
16352;SDS011;8286;51.274;9.542;2022-07-06T10:11:36;2.40;;;0.73;;
16352;SDS011;8286;51.274;9.542;2022-07-06T10:14:05;1.92;;;0.52;;
16352;SDS011;8286;51.274;9.542;2022-07-06T10:16:32;1.33;;;0.40;;
16352;SDS011;8286;51.274;9.542;2022-07-06T10:19:01;1.80;;;0.90;;
16352;SDS011;8286;51.274;9.542;2022-07-06T10:21:30;3.67;;;0.80;;
16352;SDS011;8286;51.274;9.542;2022-07-06T10:23:59;1.13;;;0.70;;
16352;SDS011;8286;51.274;9.542;2022-07-06T10:26:26;1.17;;;0.60;;
16352;SDS011;8286;51.274;9.542;2022-07-06T10:28:53;2.05;;;0.60;;
16352;SDS011;8286;51.274;9.542;2022-07-06T10:31:20;3.13;;;0.90;;
16352;SDS011;8286;51.274;9.542;2022-07-06T10:33:46;2.42;;;0.70;;
16352;SDS011;8286;51.274;9.542;2022-07-06T10:36:13;2.63;;;0.93;;
16352;SDS011;8286;51.274;9.542;2022-07-06T10:38:41;1.05;;;0.60;;
16352;SDS011;8286;51.274;9.542;2022-07-06T10:41:16;0.50;;;0.50;;
16352;SDS011;8286;51.274;9.542;2022-07-06T10:43:43;1.45;;;0.60;;
16352;SDS011;8286;51.274;9.542;2022-07-06T10:46:11;3.53;;;0.82;;
16352;SDS011;8286;51.274;9.542;2022-07-06T10:48:39;0.80;;;0.55;;
16352;SDS011;8286;51.274;9.542;2022-07-06T10:51:06;0.93;;;0.73;;
16352;SDS011;8286;51.274;9.542;2022-07-06T10:53:34;3.20;;;0.68;;
16352;SDS011;8286;51.274;9.542;2022-07-06T10:56:03;0.70;;;0.50;;
16352;SDS011;8286;51.274;9.542;2022-07-06T10:58:36;1.40;;;0.60;;
16352;SDS011;8286;51.274;9.542;2022-07-06T11:01:07;2.03;;;0.60;;
16352;SDS011;8286;51.274;9.542;2022-07-06T11:03:38;1.95;;;0.70;;
16352;SDS011;8286;51.274;9.542;2022-07-06T11:06:07;1.98;;;0.50;;
16352;SDS011;8286;51.274;9.542;2022-07-06T11:08:42;1.38;;;0.45;;
16352;SDS011;8286;51.274;9.542;2022-07-06T11:11:18;0.93;;;0.63;;
16352;SDS011;8286;51.274;9.542;2022-07-06T11:13:48;3.80;;;0.70;;
16352;SDS011;8286;51.274;9.542;2022-07-06T11:16:17;0.80;;;0.80;;
16352;SDS011;8286;51.274;9.542;2022-07-06T11:18:47;0.43;;;0.30;;
16352;SDS011;8286;51.274;9.542;2022-07-06T11:21:18;0.55;;;0.55;;
16352;SDS011;8286;51.274;9.542;2022-07-06T11:23:47;1.00;;;1.00;;
16352;SDS011;8286;51.274;9.542;2022-07-06T11:26:15;5.18;;;0.82;;
16352;SDS011;8286;51.274;9.542;2022-07-06T11:28:42;0.98;;;0.65;;
16352;SDS011;8286;51.274;9.542;2022-07-06T11:31:13;0.80;;;0.80;;
16352;SDS011;8286;51.274;9.542;2022-07-06T11:33:41;0.65;;;0.65;;
16352;SDS011;8286;51.274;9.542;2022-07-06T11:36:14;1.52;;;0.63;;
16352;SDS011;8286;51.274;9.542;2022-07-06T11:38:41;0.73;;;0.60;;
16352;SDS011;8286;51.274;9.542;2022-07-06T11:41:08;0.80;;;0.70;;
16352;SDS011;8286;51.274;9.542;2022-07-06T11:43:36;2.05;;;0.77;;
16352;SDS011;8286;51.274;9.542;2022-07-06T11:46:07;1.70;;;0.70;;
16352;SDS011;8286;51.274;9.542;2022-07-06T11:48:45;2.10;;;0.80;;
16352;SDS011;8286;51.274;9.542;2022-07-06T11:51:12;1.75;;;0.52;;
16352;SDS011;8286;51.274;9.542;2022-07-06T11:53:42;0.75;;;0.63;;
16352;SDS011;8286;51.274;9.542;2022-07-06T11:56:09;2.65;;;0.70;;
16352;SDS011;8286;51.274;9.542;2022-07-06T11:58:36;0.52;;;0.47;;
16352;SDS011;8286;51.274;9.542;2022-07-06T12:01:05;1.38;;;0.38;;
16352;SDS011;8286;51.274;9.542;2022-07-06T12:03:34;1.02;;;0.60;;
16352;SDS011;8286;51.274;9.542;2022-07-06T12:06:01;0.75;;;0.63;;
16352;SDS011;8286;51.274;9.542;2022-07-06T12:08:28;1.23;;;0.75;;
16352;SDS011;8286;51.274;9.542;2022-07-06T12:10:54;1.95;;;0.60;;
16352;SDS011;8286;51.274;9.542;2022-07-06T12:13:22;1.98;;;0.70;;
16352;SDS011;8286;51.274;9.542;2022-07-06T12:15:49;2.05;;;1.13;;
16352;SDS011;8286;51.274;9.542;2022-07-06T12:18:15;3.53;;;0.70;;
16352;SDS011;8286;51.274;9.542;2022-07-06T12:20:43;1.67;;;0.70;;
16352;SDS011;8286;51.274;9.542;2022-07-06T12:23:10;5.45;;;0.65;;
16352;SDS011;8286;51.274;9.542;2022-07-06T12:25:37;1.38;;;0.50;;
16352;SDS011;8286;51.274;9.542;2022-07-06T12:28:04;2.90;;;0.80;;
16352;SDS011;8286;51.274;9.542;2022-07-06T12:30:31;2.05;;;0.68;;
16352;SDS011;8286;51.274;9.542;2022-07-06T12:33:11;0.60;;;0.60;;
16352;SDS011;8286;51.274;9.542;2022-07-06T12:35:40;0.60;;;0.60;;
16352;SDS011;8286;51.274;9.542;2022-07-06T12:38:08;1.85;;;0.50;;
16352;SDS011;8286;51.274;9.542;2022-07-06T12:40:35;0.52;;;0.50;;
16352;SDS011;8286;51.274;9.542;2022-07-06T12:43:02;0.55;;;0.52;;
16352;SDS011;8286;51.274;9.542;2022-07-06T12:45:29;0.57;;;0.50;;
16352;SDS011;8286;51.274;9.542;2022-07-06T12:47:56;1.67;;;0.65;;
16352;SDS011;8286;51.274;9.542;2022-07-06T12:50:30;0.95;;;0.60;;
16352;SDS011;8286;51.274;9.542;2022-07-06T12:52:57;0.43;;;0.43;;
16352;SDS011;8286;51.274;9.542;2022-07-06T12:55:26;1.27;;;0.50;;
16352;SDS011;8286;51.274;9.542;2022-07-06T12:57:54;2.67;;;0.80;;
16352;SDS011;8286;51.274;9.542;2022-07-06T13:00:21;2.65;;;0.55;;
16352;SDS011;8286;51.274;9.542;2022-07-06T13:02:49;0.73;;;0.70;;
16352;SDS011;8286;51.274;9.542;2022-07-06T13:05:21;3.75;;;1.20;;
16352;SDS011;8286;51.274;9.542;2022-07-06T13:07:52;0.52;;;0.52;;
16352;SDS011;8286;51.274;9.542;2022-07-06T13:10:20;0.75;;;0.70;;
16352;SDS011;8286;51.274;9.542;2022-07-06T13:12:48;10.25;;;1.33;;
16352;SDS011;8286;51.274;9.542;2022-07-06T13:15:16;1.42;;;0.75;;
16352;SDS011;8286;51.274;9.542;2022-07-06T13:17:43;3.67;;;0.90;;
16352;SDS011;8286;51.274;9.542;2022-07-06T13:20:10;3.03;;;0.82;;
16352;SDS011;8286;51.274;9.542;2022-07-06T13:22:38;6.03;;;0.82;;
16352;SDS011;8286;51.274;9.542;2022-07-06T13:25:05;0.93;;;0.75;;
16352;SDS011;8286;51.274;9.542;2022-07-06T13:27:32;3.28;;;0.60;;
16352;SDS011;8286;51.274;9.542;2022-07-06T13:30:00;3.90;;;0.60;;
16352;SDS011;8286;51.274;9.542;2022-07-06T13:32:27;0.57;;;0.57;;
16352;SDS011;8286;51.274;9.542;2022-07-06T13:34:54;3.88;;;0.80;;
16352;SDS011;8286;51.274;9.542;2022-07-06T13:37:20;2.67;;;0.77;;
16352;SDS011;8286;51.274;9.542;2022-07-06T13:39:47;2.75;;;0.98;;
16352;SDS011;8286;51.274;9.542;2022-07-06T13:42:14;4.47;;;0.90;;
16352;SDS011;8286;51.274;9.542;2022-07-06T13:44:40;1.48;;;0.60;;
16352;SDS011;8286;51.274;9.542;2022-07-06T13:47:08;2.35;;;0.77;;
16352;SDS011;8286;51.274;9.542;2022-07-06T13:49:36;1.35;;;0.70;;
16352;SDS011;8286;51.274;9.542;2022-07-06T13:52:03;5.78;;;0.80;;
16352;SDS011;8286;51.274;9.542;2022-07-06T13:54:30;1.17;;;0.50;;
16352;SDS011;8286;51.274;9.542;2022-07-06T13:56:57;2.35;;;0.73;;
16352;SDS011;8286;51.274;9.542;2022-07-06T13:59:23;2.38;;;0.57;;
16352;SDS011;8286;51.274;9.542;2022-07-06T14:01:50;2.45;;;0.90;;
16352;SDS011;8286;51.274;9.542;2022-07-06T14:04:18;0.75;;;0.75;;
16352;SDS011;8286;51.274;9.542;2022-07-06T14:06:45;1.25;;;0.60;;
16352;SDS011;8286;51.274;9.542;2022-07-06T14:09:12;0.75;;;0.68;;
16352;SDS011;8286;51.274;9.542;2022-07-06T14:11:38;4.32;;;0.60;;
16352;SDS011;8286;51.274;9.542;2022-07-06T14:14:05;1.90;;;0.80;;
16352;SDS011;8286;51.274;9.542;2022-07-06T14:16:32;3.90;;;0.70;;
16352;SDS011;8286;51.274;9.542;2022-07-06T14:19:00;0.70;;;0.63;;
16352;SDS011;8286;51.274;9.542;2022-07-06T14:21:28;2.10;;;0.90;;
16352;SDS011;8286;51.274;9.542;2022-07-06T14:23:55;0.95;;;0.70;;
16352;SDS011;8286;51.274;9.542;2022-07-06T14:26:22;2.42;;;0.70;;
16352;SDS011;8286;51.274;9.542;2022-07-06T14:28:49;6.40;;;0.90;;
16352;SDS011;8286;51.274;9.542;2022-07-06T14:31:16;1.98;;;0.63;;
16352;SDS011;8286;51.274;9.542;2022-07-06T14:33:43;0.70;;;0.60;;
16352;SDS011;8286;51.274;9.542;2022-07-06T14:36:10;0.60;;;0.60;;
16352;SDS011;8286;51.274;9.542;2022-07-06T14:38:38;1.33;;;0.80;;
16352;SDS011;8286;51.274;9.542;2022-07-06T14:41:04;3.55;;;0.80;;
16352;SDS011;8286;51.274;9.542;2022-07-06T14:43:31;0.90;;;0.90;;
16352;SDS011;8286;51.274;9.542;2022-07-06T14:45:57;0.60;;;0.60;;
16352;SDS011;8286;51.274;9.542;2022-07-06T14:48:24;3.83;;;1.13;;
16352;SDS011;8286;51.274;9.542;2022-07-06T14:50:51;2.45;;;0.93;;
16352;SDS011;8286;51.274;9.542;2022-07-06T14:53:18;4.70;;;0.90;;
16352;SDS011;8286;51.274;9.542;2022-07-06T14:55:47;1.63;;;0.60;;
16352;SDS011;8286;51.274;9.542;2022-07-06T14:58:14;1.23;;;0.63;;
16352;SDS011;8286;51.274;9.542;2022-07-06T15:00:42;2.92;;;0.55;;
16352;SDS011;8286;51.274;9.542;2022-07-06T15:03:09;5.57;;;0.65;;
16352;SDS011;8286;51.274;9.542;2022-07-06T15:05:36;1.92;;;0.68;;